Time;durP1;ratioP1;P1;durP2;ratioP2;P2;SDS_P1;SDS_P2;PMS_P1;PMS_P2;Temp;Humidity;BMP_temperature;BMP_pressure;BME280_temperature;BME280_humidity;BME280_pressure;Samples;Min_cycle;Max_cycle;Signal;HPM_P1;HPM_P2
2021/01/15 00:01:08;;;;;;;25.30;14.57;;;0.10;84.20;;;;;;5053575;28;20473;-74
2021/01/15 00:03:34;;;;;;;24.80;15.03;;;0.10;84.30;;;;;;5053706;28;20027;-74
2021/01/15 00:06:05;;;;;;;26.77;16.40;;;0.10;84.60;;;;;;5035778;28;20044;-81
2021/01/15 00:08:38;;;;;;;26.97;17.57;;;0.10;84.70;;;;;;5052726;28;20080;-75
2021/01/15 00:11:05;;;;;;;30.97;18.00;;;0.00;85.00;;;;;;5053127;28;20039;-73
2021/01/15 00:13:30;;;;;;;27.23;16.87;;;0.00;85.30;;;;;;5053427;28;20468;-73
2021/01/15 00:15:56;;;;;;;27.53;16.73;;;0.00;85.40;;;;;;5035949;28;20090;-73
2021/01/15 00:18:22;;;;;;;30.57;18.13;;;0.00;85.60;;;;;;5034855;28;20089;-75
2021/01/15 00:20:48;;;;;;;27.90;16.67;;;0.10;85.60;;;;;;5019153;28;20028;-74
2021/01/15 00:23:16;;;;;;;29.73;17.97;;;0.10;85.70;;;;;;5018128;28;20055;-74
2021/01/15 00:25:45;;;;;;;28.87;16.53;;;0.10;86.00;;;;;;5053382;28;20025;-74
2021/01/15 00:28:11;;;;;;;29.23;18.10;;;0.10;86.10;;;;;;5052778;28;20029;-76
2021/01/15 00:30:37;;;;;;;31.90;18.27;;;0.20;86.20;;;;;;5035238;28;20481;-74
2021/01/15 00:33:03;;;;;;;30.50;19.20;;;0.20;86.30;;;;;;5002244;28;20428;-79
2021/01/15 00:35:29;;;;;;;28.93;19.00;;;0.10;86.30;;;;;;5035321;28;20033;-75
2021/01/15 00:37:55;;;;;;;34.13;19.73;;;0.10;86.30;;;;;;5018259;28;20037;-74
2021/01/15 00:40:21;;;;;;;32.50;20.20;;;0.10;86.60;;;;;;5034174;28;20041;-75
2021/01/15 00:42:46;;;;;;;33.00;18.77;;;0.10;86.90;;;;;;5053154;28;20025;-74
2021/01/15 00:45:16;;;;;;;31.83;19.63;;;0.10;86.90;;;;;;5017696;28;20384;-74
2021/01/15 00:47:45;;;;;;;33.20;19.20;;;0.10;87.30;;;;;;5019564;28;20116;-74
2021/01/15 00:50:12;;;;;;;36.63;20.23;;;0.20;87.30;;;;;;5034687;28;20496;-75
2021/01/15 00:52:38;;;;;;;28.73;19.00;;;0.20;87.20;;;;;;5034621;28;20026;-74
2021/01/15 00:55:06;;;;;;;33.07;19.47;;;0.30;87.50;;;;;;5052644;28;20033;-81
2021/01/15 00:57:36;;;;;;;32.47;18.23;;;0.40;87.60;;;;;;5034482;28;20091;-74
2021/01/15 01:00:04;;;;;;;31.30;18.07;;;0.30;87.40;;;;;;5017931;28;20048;-74
2021/01/15 01:02:33;;;;;;;34.23;18.13;;;0.30;87.50;;;;;;5052354;28;20033;-74
2021/01/15 01:04:59;;;;;;;32.63;18.50;;;0.40;87.80;;;;;;5052692;28;20079;-73
2021/01/15 01:07:25;;;;;;;26.80;16.97;;;0.40;87.90;;;;;;5033724;28;20028;-73
2021/01/15 01:09:50;;;;;;;27.67;16.87;;;0.40;87.60;;;;;;5034540;28;20392;-73
2021/01/15 01:12:16;;;;;;;28.53;17.10;;;0.30;87.50;;;;;;5032674;28;20541;-74
2021/01/15 01:14:42;;;;;;;27.27;16.07;;;0.20;87.40;;;;;;5035092;28;20059;-73
2021/01/15 01:17:07;;;;;;;28.93;17.77;;;0.10;87.40;;;;;;5034522;28;20040;-79
2021/01/15 01:19:33;;;;;;;32.53;18.43;;;0.10;87.40;;;;;;5033977;28;20043;-75
2021/01/15 01:21:59;;;;;;;27.93;16.90;;;0.00;87.40;;;;;;5034519;28;20382;-75
2021/01/15 01:24:25;;;;;;;32.67;17.97;;;-0.10;87.40;;;;;;5030193;28;20403;-74
2021/01/15 01:26:51;;;;;;;27.67;16.07;;;-0.10;87.70;;;;;;4998912;28;20033;-74
2021/01/15 01:29:16;;;;;;;28.07;17.27;;;-0.10;87.60;;;;;;5029748;28;20052;-73
2021/01/15 01:31:42;;;;;;;30.00;16.63;;;-0.20;87.50;;;;;;5031163;28;20065;-74
2021/01/15 01:34:08;;;;;;;26.47;16.37;;;-0.20;87.50;;;;;;4998322;28;20409;-78
2021/01/15 01:36:33;;;;;;;31.17;17.47;;;-0.20;87.60;;;;;;5013357;28;20025;-75
2021/01/15 01:38:59;;;;;;;24.93;16.13;;;-0.20;87.80;;;;;;5014454;28;20033;-73
2021/01/15 01:41:25;;;;;;;34.10;18.60;;;-0.20;87.70;;;;;;5031123;28;20056;-73
2021/01/15 01:43:50;;;;;;;29.20;16.57;;;-0.10;88.00;;;;;;5030813;28;20429;-74
2021/01/15 01:46:20;;;;;;;35.23;17.63;;;-0.20;87.80;;;;;;5029824;28;20030;-73
2021/01/15 01:48:46;;;;;;;27.47;15.87;;;0.00;88.10;;;;;;5030328;28;20033;-73
2021/01/15 01:51:13;;;;;;;28.80;17.30;;;0.00;88.00;;;;;;5014315;28;20378;-78
2021/01/15 01:53:39;;;;;;;28.60;16.77;;;0.00;87.90;;;;;;5024541;28;20540;-73
2021/01/15 01:56:06;;;;;;;29.00;16.23;;;0.00;87.90;;;;;;5022215;28;20144;-73
2021/01/15 01:58:35;;;;;;;26.30;16.77;;;0.00;87.80;;;;;;5030209;28;20037;-75
2021/01/15 02:01:03;;;;;;;27.67;16.87;;;0.10;87.90;;;;;;5031669;28;20036;-72
2021/01/15 02:03:29;;;;;;;31.60;17.60;;;0.00;87.70;;;;;;5030656;28;20029;-74
2021/01/15 02:05:55;;;;;;;27.23;15.67;;;-0.10;87.60;;;;;;5013446;28;20127;-72
2021/01/15 02:08:21;;;;;;;26.10;16.43;;;-0.10;87.40;;;;;;5029372;28;20415;-73
2021/01/15 02:10:55;;;;;;;24.83;15.97;;;-0.10;87.40;;;;;;5012668;28;20026;-73
2021/01/15 02:13:45;;;;;;;28.60;16.57;;;-0.10;87.50;;;;;;5029465;28;20087;-74
2021/01/15 02:16:15;;;;;;;23.67;14.53;;;-0.10;87.70;;;;;;5031224;28;20022;-73
2021/01/15 02:19:10;;;;;;;25.23;15.27;;;-0.10;87.50;;;;;;5031102;28;20037;-73
2021/01/15 02:22:14;;;;;;;24.50;14.63;;;-0.10;87.50;;;;;;5030952;28;20714;-73
2021/01/15 02:24:49;;;;;;;23.87;13.50;;;-0.10;87.60;;;;;;5009243;28;20054;-74
2021/01/15 02:27:32;;;;;;;23.03;13.97;;;0.00;87.80;;;;;;5010403;28;20038;-73
2021/01/15 02:30:16;;;;;;;26.37;14.53;;;0.00;87.40;;;;;;5009908;28;20030;-73
2021/01/15 02:33:06;;;;;;;22.47;14.00;;;0.10;87.70;;;;;;5016098;28;20485;-74
2021/01/15 02:36:01;;;;;;;27.17;15.83;;;0.20;87.70;;;;;;5027353;28;20112;-73
2021/01/15 02:39:12;;;;;;;26.13;15.53;;;0.30;88.00;;;;;;5001529;28;20053;-74
2021/01/15 02:41:40;;;;;;;24.30;14.40;;;0.40;88.30;;;;;;5004619;28;20060;-73
2021/01/15 02:44:10;;;;;;;21.83;13.90;;;0.50;88.10;;;;;;5010990;28;20022;-72
2021/01/15 02:46:56;;;;;;;22.60;14.13;;;0.60;88.30;;;;;;5009366;28;20080;-73
2021/01/15 02:49:22;;;;;;;21.67;13.80;;;0.60;88.00;;;;;;4997169;28;20049;-78
2021/01/15 02:51:48;;;;;;;21.87;13.53;;;0.70;88.10;;;;;;5009535;28;20030;-74
2021/01/15 02:54:14;;;;;;;20.70;12.47;;;0.70;87.80;;;;;;5009965;28;20041;-73
2021/01/15 02:56:40;;;;;;;21.67;12.53;;;0.70;87.40;;;;;;5009656;28;20048;-73
2021/01/15 02:59:07;;;;;;;18.87;12.47;;;0.70;87.30;;;;;;5030408;28;20045;-73
2021/01/15 03:02:26;;;;;;;20.80;13.47;;;0.70;87.20;;;;;;5012656;28;20041;-74
2021/01/15 03:05:05;;;;;;;24.43;12.97;;;0.70;86.80;;;;;;4969989;28;20042;-73
2021/01/15 03:07:31;;;;;;;16.60;11.00;;;0.80;87.10;;;;;;5008941;28;20034;-73
2021/01/15 03:10:03;;;;;;;20.47;12.00;;;0.90;87.00;;;;;;5009395;28;20045;-72
2021/01/15 03:12:30;;;;;;;17.40;11.07;;;0.90;86.50;;;;;;5010063;28;20100;-74
2021/01/15 03:14:57;;;;;;;17.90;11.30;;;1.00;87.10;;;;;;5009566;28;20034;-74
2021/01/15 03:17:29;;;;;;;17.63;10.60;;;1.10;87.00;;;;;;5009307;28;20033;-78
2021/01/15 03:19:55;;;;;;;18.20;11.10;;;1.20;86.70;;;;;;5009517;28;20429;-72
2021/01/15 03:22:22;;;;;;;15.50;10.23;;;1.30;86.60;;;;;;5015137;28;20065;-74
2021/01/15 03:25:00;;;;;;;17.20;11.37;;;1.40;86.00;;;;;;5019378;28;20119;-72
2021/01/15 03:27:49;;;;;;;17.33;10.90;;;1.40;85.20;;;;;;5054126;28;20028;-79
2021/01/15 03:30:20;;;;;;;17.63;10.90;;;1.40;84.60;;;;;;5036334;28;20029;-72
2021/01/15 03:32:50;;;;;;;16.47;10.57;;;1.50;84.80;;;;;;5035925;28;20024;-73
2021/01/15 03:35:25;;;;;;;16.57;10.43;;;1.50;84.80;;;;;;5036418;28;20480;-73
2021/01/15 03:38:12;;;;;;;17.23;10.50;;;1.60;84.00;;;;;;5020576;28;20032;-72
2021/01/15 03:40:42;;;;;;;16.17;10.33;;;1.60;83.90;;;;;;5035348;28;20036;-73
2021/01/15 03:43:12;;;;;;;16.97;10.57;;;1.60;83.50;;;;;;5036454;28;20079;-74
2021/01/15 03:45:39;;;;;;;16.17;11.00;;;1.60;83.20;;;;;;5053373;28;20041;-73
2021/01/15 03:48:06;;;;;;;18.00;11.40;;;1.80;83.90;;;;;;5019749;28;20032;-73
2021/01/15 03:50:32;;;;;;;17.67;10.67;;;1.70;82.10;;;;;;5053294;28;20033;-73
2021/01/15 03:52:58;;;;;;;15.93;10.87;;;1.70;82.60;;;;;;5054037;28;20050;-73
2021/01/15 03:55:23;;;;;;;16.93;11.80;;;1.80;82.30;;;;;;5036392;28;20032;-74
2021/01/15 03:57:49;;;;;;;16.63;11.50;;;1.70;81.40;;;;;;5018977;28;20095;-74
2021/01/15 04:00:15;;;;;;;19.43;12.27;;;1.60;82.00;;;;;;5035782;28;20032;-74
2021/01/15 04:02:42;;;;;;;17.93;11.93;;;1.70;82.80;;;;;;5035131;28;20025;-73
2021/01/15 04:05:12;;;;;;;21.93;12.90;;;1.90;83.50;;;;;;5036105;28;20029;-73
2021/01/15 04:07:38;;;;;;;21.37;13.37;;;1.90;82.40;;;;;;5034926;28;20035;-73
2021/01/15 04:10:12;;;;;;;17.03;12.43;;;1.90;82.10;;;;;;5035637;28;20029;-74
2021/01/15 04:12:39;;;;;;;17.30;12.70;;;2.10;82.70;;;;;;5035382;28;20060;-73
2021/01/15 04:15:06;;;;;;;17.50;13.33;;;2.10;81.90;;;;;;5053336;28;20033;-74
2021/01/15 04:17:32;;;;;;;20.73;12.20;;;2.10;82.00;;;;;;5053234;28;20037;-78
2021/01/15 04:19:58;;;;;;;18.63;12.50;;;2.10;82.40;;;;;;5053358;28;20525;-74
2021/01/15 04:22:24;;;;;;;21.03;13.23;;;2.10;82.30;;;;;;5053576;28;20052;-73
2021/01/15 04:24:49;;;;;;;19.77;12.83;;;2.10;81.70;;;;;;5053024;28;20580;-73
2021/01/15 04:27:15;;;;;;;17.47;11.63;;;2.00;80.90;;;;;;5035533;28;20025;-73
2021/01/15 04:29:40;;;;;;;17.83;12.07;;;2.00;81.30;;;;;;5034352;28;20025;-73
2021/01/15 04:32:06;;;;;;;17.10;11.77;;;2.10;82.00;;;;;;5035463;28;20037;-72
2021/01/15 04:34:32;;;;;;;20.40;13.00;;;2.20;82.00;;;;;;5035246;28;20037;-78
2021/01/15 04:36:58;;;;;;;17.67;11.77;;;2.30;82.80;;;;;;5035055;28;20040;-72
2021/01/15 04:39:23;;;;;;;18.03;11.40;;;2.30;81.50;;;;;;5035150;28;20036;-74
2021/01/15 04:41:51;;;;;;;17.50;11.27;;;2.20;81.40;;;;;;5053399;28;20479;-74
2021/01/15 04:44:18;;;;;;;16.23;11.27;;;2.40;82.50;;;;;;5035061;28;20036;-73
2021/01/15 04:46:45;;;;;;;17.07;11.17;;;2.50;82.30;;;;;;5018299;28;20029;-73
2021/01/15 04:49:12;;;;;;;16.50;10.47;;;2.40;81.40;;;;;;5035315;28;20048;-74
2021/01/15 04:51:39;;;;;;;20.10;11.60;;;2.40;82.10;;;;;;5052442;28;20091;-74
2021/01/15 04:54:11;;;;;;;17.77;12.03;;;2.40;81.90;;;;;;5034244;28;20032;-73
2021/01/15 04:56:50;;;;;;;17.03;11.40;;;2.50;81.80;;;;;;5034102;28;20025;-78
2021/01/15 04:59:17;;;;;;;17.17;11.60;;;2.50;81.50;;;;;;5052837;28;20083;-73
2021/01/15 05:01:45;;;;;;;17.50;12.17;;;2.40;81.80;;;;;;5018069;28;20025;-73
2021/01/15 05:04:15;;;;;;;16.83;12.90;;;2.40;82.10;;;;;;5034892;28;20504;-74
2021/01/15 05:06:47;;;;;;;21.50;13.00;;;2.40;81.70;;;;;;5017946;28;20033;-73
2021/01/15 05:09:18;;;;;;;16.42;11.55;;;2.30;81.50;;;;;;5034689;28;20059;-73
2021/01/15 05:11:45;;;;;;;19.53;12.10;;;2.30;82.10;;;;;;5051942;28;20029;-74
2021/01/15 05:14:16;;;;;;;17.13;11.67;;;2.30;82.30;;;;;;5052387;28;20084;-73
2021/01/15 05:16:43;;;;;;;18.70;12.40;;;2.40;82.40;;;;;;5033925;28;20082;-73
2021/01/15 05:19:10;;;;;;;16.57;12.10;;;2.50;82.90;;;;;;5018071;28;20093;-73
2021/01/15 05:21:37;;;;;;;16.57;11.50;;;2.50;82.30;;;;;;5034474;28;20033;-76
2021/01/15 05:24:04;;;;;;;16.27;11.37;;;2.50;82.60;;;;;;5051587;28;20055;-74
2021/01/15 05:26:33;;;;;;;21.27;11.80;;;2.70;82.90;;;;;;5033274;28;20029;-73
2021/01/15 05:29:01;;;;;;;18.23;12.07;;;2.70;83.10;;;;;;5033257;28;20615;-73
2021/01/15 05:31:27;;;;;;;17.43;12.07;;;2.70;82.60;;;;;;5017960;28;20546;-73
2021/01/15 05:34:11;;;;;;;17.87;12.10;;;2.70;82.90;;;;;;5016567;28;20029;-73
2021/01/15 05:36:36;;;;;;;18.97;13.03;;;2.70;82.30;;;;;;5034413;28;20036;-72
2021/01/15 05:39:08;;;;;;;17.50;12.53;;;2.50;82.30;;;;;;5000681;28;20033;-73
2021/01/15 05:41:34;;;;;;;21.23;14.70;;;2.40;82.20;;;;;;5034101;28;20484;-73
2021/01/15 05:44:00;;;;;;;20.97;14.37;;;2.30;81.90;;;;;;5016655;28;20053;-76
2021/01/15 05:46:26;;;;;;;21.63;15.40;;;2.30;82.20;;;;;;5033250;28;20116;-74
2021/01/15 05:48:54;;;;;;;23.93;15.07;;;2.30;81.90;;;;;;5032858;28;20442;-73
2021/01/15 05:51:25;;;;;;;22.97;15.20;;;2.20;81.90;;;;;;5017597;28;20028;-75
2021/01/15 05:53:51;;;;;;;22.20;15.27;;;2.20;82.00;;;;;;5032959;28;20029;-74
2021/01/15 05:56:19;;;;;;;20.87;13.90;;;2.30;82.90;;;;;;5016891;28;20083;-73
2021/01/15 05:59:05;;;;;;;24.97;15.77;;;2.20;82.80;;;;;;5050609;28;20036;-76
2021/01/15 06:01:42;;;;;;;21.67;14.53;;;2.20;83.10;;;;;;5033884;28;20087;-73
2021/01/15 06:04:17;;;;;;;24.00;15.27;;;2.10;82.30;;;;;;5033110;28;20116;-73
2021/01/15 06:06:43;;;;;;;21.43;14.50;;;2.00;82.50;;;;;;5021270;28;20032;-79
2021/01/15 06:09:11;;;;;;;20.03;13.67;;;2.00;82.90;;;;;;5016747;28;20136;-73
2021/01/15 06:11:39;;;;;;;22.20;14.77;;;2.00;83.10;;;;;;5051434;28;20477;-73
2021/01/15 06:14:26;;;;;;;19.90;14.43;;;2.00;83.00;;;;;;5032381;28;20025;-73
2021/01/15 06:17:06;;;;;;;25.57;16.03;;;1.90;82.90;;;;;;5050728;28;20028;-73
2021/01/15 06:19:53;;;;;;;24.63;15.20;;;1.80;83.10;;;;;;5033558;28;20079;-72
2021/01/15 06:22:43;;;;;;;25.13;15.70;;;2.00;84.20;;;;;;5032678;28;20039;-75
2021/01/15 06:25:58;;;;;;;23.23;14.77;;;2.00;83.40;;;;;;5032450;28;20039;-74
2021/01/15 06:28:33;;;;;;;24.77;16.37;;;1.90;83.50;;;;;;4969918;28;20037;-73
2021/01/15 06:31:00;;;;;;;22.27;15.17;;;1.90;83.40;;;;;;5045808;28;20040;-73
2021/01/15 06:33:25;;;;;;;24.60;16.33;;;1.80;83.20;;;;;;5051056;28;20033;-74
2021/01/15 06:35:51;;;;;;;27.93;17.20;;;1.90;83.60;;;;;;5050193;28;20170;-74
2021/01/15 06:38:18;;;;;;;26.47;17.73;;;2.00;84.00;;;;;;5051095;28;20370;-74
2021/01/15 06:40:49;;;;;;;28.03;17.13;;;2.00;84.00;;;;;;5050854;28;20036;-74
2021/01/15 06:43:17;;;;;;;25.53;17.33;;;1.80;83.50;;;;;;5050357;28;20021;-74
2021/01/15 06:45:45;;;;;;;31.53;18.03;;;1.90;83.50;;;;;;5033120;28;20033;-74
2021/01/15 06:48:25;;;;;;;25.67;18.67;;;1.90;84.00;;;;;;5032259;28;20029;-73
2021/01/15 06:50:53;;;;;;;23.70;17.20;;;2.00;84.20;;;;;;5050118;28;20036;-79
2021/01/15 06:53:24;;;;;;;28.83;18.50;;;2.10;84.10;;;;;;5052327;28;20508;-73
2021/01/15 06:55:55;;;;;;;28.47;17.20;;;2.20;84.60;;;;;;5035458;28;20027;-79
2021/01/15 06:58:29;;;;;;;28.13;16.47;;;2.20;84.30;;;;;;5036781;28;20020;-73
2021/01/15 07:01:16;;;;;;;30.00;18.87;;;2.20;84.30;;;;;;5052085;28;20029;-74
2021/01/15 07:03:53;;;;;;;27.60;15.90;;;2.40;84.70;;;;;;5052637;28;20472;-72
2021/01/15 07:06:30;;;;;;;26.67;18.60;;;2.60;84.80;;;;;;5035951;28;20234;-74
2021/01/15 07:08:59;;;;;;;23.97;17.17;;;2.60;84.80;;;;;;5051850;28;20037;-73
2021/01/15 07:11:27;;;;;;;27.27;18.13;;;2.50;84.30;;;;;;5018787;28;20025;-73
2021/01/15 07:13:55;;;;;;;27.87;19.50;;;2.50;84.40;;;;;;5049314;28;20115;-79
2021/01/15 07:16:35;;;;;;;31.30;19.43;;;2.40;84.60;;;;;;5050954;28;20028;-73
2021/01/15 07:19:15;;;;;;;27.70;17.73;;;2.50;85.00;;;;;;5018842;28;20033;-74
2021/01/15 07:22:03;;;;;;;30.00;18.97;;;2.60;85.00;;;;;;5033716;28;20025;-74
2021/01/15 07:24:36;;;;;;;29.03;18.70;;;2.60;84.70;;;;;;5052678;28;20048;-74
2021/01/15 07:27:04;;;;;;;26.90;17.97;;;2.40;83.60;;;;;;5035026;28;20376;-74
2021/01/15 07:29:33;;;;;;;34.07;20.23;;;2.40;84.20;;;;;;5054247;28;20044;-74
2021/01/15 07:32:23;;;;;;;30.30;20.07;;;2.40;83.90;;;;;;5057057;28;20052;-75
2021/01/15 07:34:56;;;;;;;29.17;19.53;;;2.40;84.60;;;;;;5053729;28;20028;-74
2021/01/15 07:37:27;;;;;;;27.20;19.03;;;2.50;84.40;;;;;;5020596;28;20063;-74
2021/01/15 07:40:16;;;;;;;31.13;19.17;;;2.50;84.70;;;;;;5035608;28;20029;-76
2021/01/15 07:42:46;;;;;;;29.57;19.50;;;2.70;84.90;;;;;;5030739;28;20044;-74
2021/01/15 07:45:42;;;;;;;34.23;20.23;;;2.80;85.10;;;;;;5031177;28;20021;-75
2021/01/15 07:48:08;;;;;;;28.10;18.07;;;2.90;85.20;;;;;;5041584;28;20045;-75
2021/01/15 07:50:40;;;;;;;26.80;18.00;;;3.10;86.00;;;;;;5022139;28;20057;-74
2021/01/15 07:53:23;;;;;;;23.87;17.47;;;3.40;86.00;;;;;;5035482;28;20120;-75
2021/01/15 07:55:49;;;;;;;26.83;17.57;;;3.50;85.00;;;;;;5054272;28;20021;-74
2021/01/15 07:58:18;;;;;;;28.20;18.77;;;3.40;84.30;;;;;;5039025;28;20492;-74
2021/01/15 08:00:45;;;;;;;26.73;17.47;;;3.50;84.70;;;;;;5036669;28;20028;-74
2021/01/15 08:03:12;;;;;;;27.43;17.73;;;3.40;84.10;;;;;;5035202;28;20048;-74
2021/01/15 08:05:38;;;;;;;25.93;16.90;;;3.50;84.70;;;;;;5051965;28;20029;-73
2021/01/15 08:08:17;;;;;;;25.13;16.23;;;3.60;85.00;;;;;;5052929;28;20064;-76
2021/01/15 08:10:45;;;;;;;28.70;17.60;;;3.60;84.10;;;;;;5055482;28;20051;-76
2021/01/15 08:13:27;;;;;;;32.60;18.67;;;3.70;84.50;;;;;;5036205;28;20089;-74
2021/01/15 08:15:55;;;;;;;28.33;18.53;;;3.70;84.40;;;;;;5055817;28;20108;-75
2021/01/15 08:18:21;;;;;;;30.43;19.47;;;3.80;84.50;;;;;;5057771;28;20024;-76
2021/01/15 08:20:52;;;;;;;29.50;19.80;;;3.80;84.00;;;;;;5041449;28;20029;-74
2021/01/15 08:23:23;;;;;;;32.43;20.13;;;3.80;83.70;;;;;;5036828;28;20405;-76
2021/01/15 08:25:54;;;;;;;35.23;22.60;;;3.80;83.50;;;;;;5026234;28;20394;-75
2021/01/15 08:28:21;;;;;;;35.60;23.23;;;3.70;83.40;;;;;;5042887;28;20043;-75
2021/01/15 08:30:56;;;;;;;37.20;23.80;;;3.70;83.20;;;;;;5042288;28;20067;-74
2021/01/15 08:33:22;;;;;;;35.47;23.97;;;3.80;83.70;;;;;;5042393;28;20257;-77
2021/01/15 08:35:53;;;;;;;33.80;22.33;;;3.70;83.10;;;;;;5042082;28;20025;-75
2021/01/15 08:38:28;;;;;;;39.27;25.50;;;3.90;84.00;;;;;;5043459;28;20025;-75
2021/01/15 08:40:56;;;;;;;35.27;24.53;;;4.00;83.70;;;;;;5042637;28;20033;-75
2021/01/15 08:43:25;;;;;;;38.57;23.00;;;4.00;83.70;;;;;;5007165;28;20029;-75
2021/01/15 08:45:52;;;;;;;41.27;26.50;;;4.10;83.60;;;;;;5042517;28;20025;-75
2021/01/15 08:48:20;;;;;;;35.13;22.40;;;4.00;83.30;;;;;;5010134;28;20029;-76
2021/01/15 08:50:46;;;;;;;44.90;27.83;;;3.90;82.60;;;;;;5056178;28;20041;-74
2021/01/15 08:53:17;;;;;;;42.20;28.00;;;3.80;82.60;;;;;;5042156;28;20031;-74
2021/01/15 08:55:46;;;;;;;43.70;28.67;;;3.90;83.20;;;;;;5042273;28;20111;-77
2021/01/15 08:58:11;;;;;;;51.83;32.63;;;3.90;83.00;;;;;;5039000;28;20473;-74
2021/01/15 09:00:37;;;;;;;38.27;26.87;;;3.90;83.20;;;;;;5041530;28;20092;-74
2021/01/15 09:03:04;;;;;;;49.50;30.73;;;3.80;82.90;;;;;;5054129;28;20365;-74
2021/01/15 09:05:36;;;;;;;46.63;28.60;;;3.90;83.20;;;;;;5037340;28;20033;-75
2021/01/15 09:08:05;;;;;;;48.27;29.03;;;4.00;83.30;;;;;;5056707;28;20029;-74
2021/01/15 09:10:31;;;;;;;43.07;27.40;;;4.00;83.20;;;;;;5039397;28;20036;-75
2021/01/15 09:13:04;;;;;;;41.80;27.30;;;4.00;82.80;;;;;;5020602;28;20033;-76
2021/01/15 09:15:30;;;;;;;47.15;31.52;;;4.00;82.90;;;;;;5060810;28;20021;-76
2021/01/15 09:17:57;;;;;;;48.63;31.30;;;3.90;82.60;;;;;;5037588;28;20808;-76
2021/01/15 09:20:23;;;;;;;39.03;26.97;;;4.10;83.30;;;;;;5019552;28;20153;-76
2021/01/15 09:22:49;;;;;;;45.63;28.90;;;4.00;82.20;;;;;;4999066;28;20050;-78
2021/01/15 09:25:17;;;;;;;48.80;32.47;;;4.00;82.40;;;;;;5001474;28;20036;-76
2021/01/15 09:27:43;;;;;;;43.40;27.53;;;4.00;83.00;;;;;;5017505;28;20496;-74
2021/01/15 09:30:11;;;;;;;42.60;27.87;;;4.00;82.20;;;;;;5016197;28;20088;-76
2021/01/15 09:32:41;;;;;;;43.53;28.43;;;3.90;81.90;;;;;;5024532;28;20044;-76
2021/01/15 09:35:09;;;;;;;51.70;32.10;;;3.80;80.80;;;;;;5020425;28;20555;-75
2021/01/15 09:37:34;;;;;;;48.67;31.30;;;3.60;81.10;;;;;;4990374;28;20050;-77
2021/01/15 09:40:00;;;;;;;54.40;31.40;;;3.60;81.90;;;;;;4977528;28;20381;-74
2021/01/15 09:42:25;;;;;;;58.53;35.97;;;3.60;82.50;;;;;;4976463;28;20048;-73
2021/01/15 09:44:51;;;;;;;48.13;31.23;;;4.00;84.30;;;;;;5011573;28;20060;-73
2021/01/15 09:47:17;;;;;;;47.60;30.60;;;4.10;82.90;;;;;;5011169;28;20486;-74
2021/01/15 09:49:42;;;;;;;42.30;27.20;;;4.10;82.00;;;;;;5011984;28;20521;-74
2021/01/15 09:52:08;;;;;;;42.33;27.53;;;4.20;81.60;;;;;;5013408;28;20512;-74
2021/01/15 09:54:34;;;;;;;39.43;25.07;;;4.20;80.80;;;;;;4997850;28;20033;-74
2021/01/15 09:57:01;;;;;;;37.97;24.57;;;4.40;80.40;;;;;;5010904;28;20018;-75
2021/01/15 09:59:27;;;;;;;35.47;24.17;;;4.30;79.70;;;;;;4990990;28;20030;-76
2021/01/15 10:01:53;;;;;;;35.97;24.97;;;4.10;78.60;;;;;;5011086;28;20052;-75
2021/01/15 10:04:18;;;;;;;40.93;25.67;;;4.10;78.90;;;;;;5009955;28;20117;-76
2021/01/15 10:06:45;;;;;;;38.07;25.30;;;4.00;79.40;;;;;;5010088;28;20092;-75
2021/01/15 10:09:13;;;;;;;37.67;24.70;;;4.20;79.80;;;;;;5007956;28;20029;-75
2021/01/15 10:11:41;;;;;;;42.83;26.23;;;4.20;78.90;;;;;;5009099;28;20041;-75
2021/01/15 10:14:15;;;;;;;41.17;26.47;;;4.20;79.40;;;;;;5010008;28;20089;-77
2021/01/15 10:16:47;;;;;;;42.07;26.27;;;4.20;79.50;;;;;;5010992;28;20026;-74
2021/01/15 10:19:13;;;;;;;39.20;25.55;;;4.40;79.20;;;;;;5008014;28;20054;-74
2021/01/15 10:21:39;;;;;;;43.60;27.90;;;4.30;78.90;;;;;;5008957;28;20076;-76
2021/01/15 10:24:07;;;;;;;43.50;26.53;;;4.50;79.50;;;;;;5044407;28;20052;-74
2021/01/15 10:26:37;;;;;;;38.43;25.00;;;4.50;79.30;;;;;;5030121;28;20083;-76
2021/01/15 10:29:08;;;;;;;40.67;24.50;;;4.50;78.10;;;;;;5012504;28;20046;-74
2021/01/15 10:31:44;;;;;;;38.23;24.50;;;4.50;78.60;;;;;;5017955;28;20402;-74
2021/01/15 10:34:10;;;;;;;41.73;26.13;;;4.40;78.30;;;;;;5032481;28;20041;-77
2021/01/15 10:36:38;;;;;;;39.23;25.17;;;4.50;79.00;;;;;;5015838;28;20535;-73
2021/01/15 10:39:04;;;;;;;39.87;26.30;;;4.60;78.50;;;;;;5029857;28;20056;-75
2021/01/15 10:41:38;;;;;;;39.23;25.20;;;4.60;78.40;;;;;;5032111;28;20052;-74
2021/01/15 10:44:05;;;;;;;40.03;25.63;;;4.70;78.60;;;;;;5050490;28;20029;-74
2021/01/15 10:46:32;;;;;;;43.07;27.43;;;4.80;78.80;;;;;;5025971;28;20234;-74
2021/01/15 10:48:58;;;;;;;37.73;24.20;;;5.00;78.90;;;;;;5050352;28;20119;-75
2021/01/15 10:51:24;;;;;;;36.13;24.43;;;5.10;78.20;;;;;;5032019;28;20028;-81
2021/01/15 10:53:49;;;;;;;43.30;27.10;;;5.00;77.70;;;;;;5015265;28;20067;-75
2021/01/15 10:56:15;;;;;;;43.63;26.67;;;5.10;78.70;;;;;;5029837;28;20040;-74
2021/01/15 10:58:41;;;;;;;41.93;26.10;;;5.20;78.40;;;;;;5014459;28;20053;-75
2021/01/15 11:01:06;;;;;;;40.57;26.87;;;5.20;77.90;;;;;;5050380;28;20064;-75
2021/01/15 11:03:32;;;;;;;37.37;24.87;;;5.30;77.50;;;;;;5031578;28;20481;-74
2021/01/15 11:05:57;;;;;;;44.93;27.50;;;5.20;76.90;;;;;;5015105;28;20534;-74
2021/01/15 11:08:23;;;;;;;41.73;27.07;;;5.10;77.10;;;;;;5033020;28;20032;-79
2021/01/15 11:10:49;;;;;;;39.10;25.37;;;5.20;77.80;;;;;;4996951;28;20052;-74
2021/01/15 11:13:14;;;;;;;40.60;24.60;;;5.30;77.30;;;;;;5031250;28;20444;-74
2021/01/15 11:15:40;;;;;;;43.80;28.83;;;5.10;76.00;;;;;;5012057;28;20082;-74
2021/01/15 11:18:06;;;;;;;38.37;25.00;;;5.00;77.30;;;;;;5031957;28;20049;-73
2021/01/15 11:20:32;;;;;;;43.77;27.90;;;5.00;77.00;;;;;;5029619;28;20417;-74
2021/01/15 11:22:57;;;;;;;45.70;28.53;;;5.10;77.80;;;;;;5027118;28;20496;-72
2021/01/15 11:25:23;;;;;;;45.00;28.33;;;5.20;77.70;;;;;;5026926;28;20057;-74
2021/01/15 11:27:49;;;;;;;44.87;28.87;;;5.20;76.60;;;;;;5028099;28;20041;-73
2021/01/15 11:30:15;;;;;;;39.80;25.83;;;5.30;77.30;;;;;;5027639;28;20477;-73
2021/01/15 11:32:41;;;;;;;38.67;25.93;;;5.30;76.80;;;;;;5026848;28;20071;-73
2021/01/15 11:35:08;;;;;;;41.53;25.00;;;5.30;76.30;;;;;;5027620;28;20026;-74
2021/01/15 11:37:35;;;;;;;45.80;29.30;;;5.30;76.10;;;;;;5008739;28;20034;-74
2021/01/15 11:40:08;;;;;;;49.80;29.97;;;5.30;76.30;;;;;;5028485;28;20037;-73
2021/01/15 11:42:34;;;;;;;58.85;29.38;;;5.60;77.30;;;;;;5009272;28;20038;-73
2021/01/15 11:45:00;;;;;;;59.00;29.67;;;5.80;76.90;;;;;;5028194;28;20123;-75
2021/01/15 11:47:26;;;;;;;52.50;28.33;;;5.90;76.20;;;;;;5034281;28;20029;-75
2021/01/15 11:49:51;;;;;;;52.33;30.83;;;6.00;75.90;;;;;;5031896;28;20042;-75
2021/01/15 11:52:18;;;;;;;51.77;28.40;;;6.10;75.70;;;;;;5031102;28;20041;-74
2021/01/15 11:54:43;;;;;;;37.27;22.93;;;6.20;75.30;;;;;;5026786;28;20042;-74
2021/01/15 11:57:10;;;;;;;37.13;24.83;;;6.20;74.40;;;;;;5031121;28;20086;-75
2021/01/15 11:59:35;;;;;;;42.07;25.67;;;6.10;73.70;;;;;;5013396;28;20128;-75
2021/01/15 12:02:01;;;;;;;40.73;24.17;;;6.00;73.80;;;;;;5030935;28;20167;-76
2021/01/15 12:04:26;;;;;;;45.73;27.63;;;5.90;74.30;;;;;;5014331;28;20075;-74
2021/01/15 12:06:56;;;;;;;41.20;26.07;;;5.70;74.30;;;;;;5032158;28;20079;-74
2021/01/15 12:09:22;;;;;;;43.50;27.57;;;5.70;74.60;;;;;;5028686;28;20034;-75
2021/01/15 12:11:48;;;;;;;44.00;27.87;;;5.60;74.90;;;;;;5031284;28;20041;-74
2021/01/15 12:14:14;;;;;;;44.80;28.10;;;5.60;75.10;;;;;;5031820;28;20036;-73
2021/01/15 12:16:40;;;;;;;45.27;29.83;;;5.50;74.90;;;;;;5012364;28;20038;-76
2021/01/15 12:19:08;;;;;;;46.07;29.23;;;5.50;75.40;;;;;;5030136;28;20053;-75
2021/01/15 12:21:36;;;;;;;45.57;30.03;;;5.50;75.00;;;;;;5032916;28;20540;-79
2021/01/15 12:24:03;;;;;;;45.63;29.67;;;5.50;75.80;;;;;;5029208;28;20519;-74
2021/01/15 12:26:31;;;;;;;41.77;28.00;;;5.60;75.80;;;;;;5026215;28;20037;-75
2021/01/15 12:28:57;;;;;;;42.43;28.80;;;5.60;75.70;;;;;;5031226;28;20045;-74
2021/01/15 12:31:22;;;;;;;43.63;26.93;;;5.70;75.80;;;;;;5032648;28;20046;-74
2021/01/15 12:33:48;;;;;;;38.10;25.03;;;5.60;74.90;;;;;;5031171;28;20362;-73
2021/01/15 12:36:14;;;;;;;39.67;25.37;;;5.60;74.60;;;;;;5015739;28;20044;-74
2021/01/15 12:38:39;;;;;;;42.87;27.00;;;5.50;74.60;;;;;;5015192;28;20036;-75
2021/01/15 12:41:05;;;;;;;37.20;23.33;;;5.50;75.40;;;;;;5013726;28;20501;-74
2021/01/15 12:43:30;;;;;;;39.07;25.87;;;5.50;75.20;;;;;;5015439;28;20033;-74
2021/01/15 12:45:56;;;;;;;39.63;24.63;;;5.50;75.20;;;;;;5023349;28;20041;-72
2021/01/15 12:48:22;;;;;;;36.10;23.13;;;5.40;75.40;;;;;;5006418;28;20374;-73